English, West Virginia
Current Conditions -  °F | °C
As of 9:15 PM on Saturday 25 Oct 2014 (Local Time) from KJFZ Reporting Station
Broken Clouds Broken Clouds  
Wind Chill: 61°   Ceiling: 2500
Heat Index: 61°   Visibility: 10mi
Dew Point: 32°   Wind: 10mph
Humidity: 35%   Direction: 240°WSW
Pressure: 30.01"   Gusts: NA
Location:  37.34°N, 81.72°W
Report Text: KJFZ 260115Z AUTO 24009KT 210V280 10SM BKN025 16/00 A3001 RMK AO2 T01590002
Loading
Personal Weather Stations






























Interactive Weather Map New forecast layout! Learn more

10-Day Weather Forecast

Advertisements
Track Severe Weather on mobile